KFFT/FFT METAR and TAF weather

Enter ICAO airport designator
Station Type Date Time Source
KFFT METAR 2021/04/13 22:53 UTC NOAA

KFFT 132253Z AUTO 32006KT 10SM BKN100 18/06 A3009 RMK AO2 SLP188 T01830061


Station Type Date Time Source
KFFT Decoded METAR 2021/04/13 22:53 UTC NOAA

FRANKFORT CAPITAL CITY AIRPORT , KY, United States (KFFT) 38-11N 84-54W 236M
Apr 13, 2021 - 06:53 PM EDT / 2021.04.13 2253 UTC
Wind: from the NW (320 degrees) at 7 MPH (6 KT):0
Visibility: 10 mile(s):0
Sky conditions: mostly cloudy
Temperature: 64.9 F (18.3 C)
Dew Point: 43.0 F (6.1 C)
Relative Humidity: 44%
Pressure (altimeter): 30.09 in. Hg (1018 hPa)
ob: KFFT 132253Z AUTO 32006KT 10SM BKN100 18/06 A3009 RMK AO2 SLP188 T01830061
cycle: 23

Station Type Date Time Source
KFFT TAF UTC NOAA

Error!

Example: see airport list